JST124 YMML-YSSY
Flight info
| Callsign | JST124 |
|---|---|
| Flight time | 1h 9m |
| Altitude | 37000 |
| Route | DOSEL2/34 DOSEL Y59 RIVET |
| Aircraft | A321/M-SDE3FGHIRWY/LB1 |
Departure
| Time | 2026-05-04 08:37 |
|---|---|
| Airport | Melbourne Airport (YMML) |
Arrival
| Time | 2026-05-04 09:46 |
|---|---|
| Airport | Sydney Kingsford Smith International Airport (YSSY) |
| Time | Latitude | Longitude | Altitude | Speed | Heading |
|---|---|---|---|---|---|
| 2026-05-04 07:54 | -37.67358 | 144.84584 | 383 ft | 0 kts | 351° |
| 2026-05-04 08:22 | -37.67371 | 144.84586 | 382 ft | 4 kts | 352° |
| 2026-05-04 08:24 | -37.67446 | 144.84641 | 381 ft | 1 kts | 261° |
| 2026-05-04 08:27 | -37.67489 | 144.84289 | 375 ft | 17 kts | 261° |
| 2026-05-04 08:28 | -37.67530 | 144.84144 | 370 ft | 20 kts | 215° |
| 2026-05-04 08:28 | -37.67659 | 144.84145 | 368 ft | 19 kts | 172° |
| 2026-05-04 08:28 | -37.67788 | 144.84171 | 365 ft | 9 kts | 172° |
| 2026-05-04 08:28 | -37.67792 | 144.84171 | 364 ft | 0 kts | 172° |
| 2026-05-04 08:29 | -37.67793 | 144.84172 | 364 ft | 1 kts | 172° |
| 2026-05-04 08:29 | -37.67817 | 144.84176 | 361 ft | 0 kts | 172° |
| 2026-05-04 08:29 | -37.67834 | 144.84179 | 362 ft | 6 kts | 172° |
| 2026-05-04 08:31 | -37.67872 | 144.84126 | 361 ft | 0 kts | 256° |
| 2026-05-04 08:33 | -37.67873 | 144.84120 | 365 ft | 5 kts | 256° |
| 2026-05-04 08:35 | -37.67826 | 144.83959 | 359 ft | 0 kts | 347° |
| 2026-05-04 08:37 | -37.65777 | 144.83602 | 1087 ft | 163 kts | 352° |
| 2026-05-04 08:37 | -37.64678 | 144.83395 | 2226 ft | 156 kts | 346° |
| 2026-05-04 08:37 | -37.63619 | 144.83189 | 2831 ft | 158 kts | 345° |
| 2026-05-04 08:38 | -37.62480 | 144.82955 | 3063 ft | 178 kts | 344° |
| 2026-05-04 08:38 | -37.61288 | 144.82710 | 3215 ft | 197 kts | 345° |
| 2026-05-04 08:38 | -37.59841 | 144.82431 | 3363 ft | 226 kts | 350° |
| 2026-05-04 08:40 | -37.48606 | 144.88650 | 8488 ft | 281 kts | 19° |
| 2026-05-04 08:40 | -37.46832 | 144.89727 | 9258 ft | 285 kts | 20° |
| 2026-05-04 08:40 | -37.45032 | 144.90839 | 10016 ft | 292 kts | 24° |
| 2026-05-04 08:41 | -37.43373 | 144.92400 | 10755 ft | 304 kts | 40° |
| 2026-05-04 08:41 | -37.42027 | 144.94514 | 11319 ft | 320 kts | 50° |
| 2026-05-04 08:41 | -37.40686 | 144.96884 | 11529 ft | 343 kts | 51° |
| 2026-05-04 08:41 | -37.39278 | 144.99386 | 11990 ft | 355 kts | 51° |
| 2026-05-04 08:42 | -37.37857 | 145.01917 | 12673 ft | 360 kts | 51° |
| 2026-05-04 08:42 | -37.36408 | 145.04503 | 13406 ft | 364 kts | 51° |
| 2026-05-04 08:42 | -37.34944 | 145.07105 | 14079 ft | 368 kts | 51° |
| 2026-05-04 08:42 | -37.33481 | 145.09700 | 14713 ft | 371 kts | 51° |
| 2026-05-04 08:43 | -37.31981 | 145.12357 | 15379 ft | 374 kts | 50° |
| 2026-05-04 08:43 | -37.30462 | 145.15037 | 16050 ft | 377 kts | 50° |
| 2026-05-04 08:43 | -37.28930 | 145.17732 | 16728 ft | 381 kts | 50° |
| 2026-05-04 08:43 | -37.27380 | 145.20454 | 17412 ft | 384 kts | 50° |
| 2026-05-04 08:44 | -37.25817 | 145.23195 | 18061 ft | 388 kts | 50° |
| 2026-05-04 08:44 | -37.24260 | 145.25930 | 18657 ft | 391 kts | 50° |
| 2026-05-04 08:46 | -37.12913 | 145.45810 | 22754 ft | 411 kts | 50° |
| 2026-05-04 08:46 | -37.11237 | 145.48730 | 23313 ft | 414 kts | 50° |
| 2026-05-04 08:46 | -37.09544 | 145.51677 | 23800 ft | 417 kts | 49° |
| 2026-05-04 08:46 | -37.07862 | 145.54600 | 24244 ft | 420 kts | 48° |
| 2026-05-04 08:47 | -37.06123 | 145.57617 | 24704 ft | 422 kts | 47° |
| 2026-05-04 08:47 | -37.04426 | 145.60562 | 25128 ft | 424 kts | 47° |
| 2026-05-04 08:47 | -37.02691 | 145.63572 | 25537 ft | 427 kts | 47° |
| 2026-05-04 08:47 | -37.00946 | 145.66601 | 25921 ft | 430 kts | 46° |
| 2026-05-04 08:48 | -36.99190 | 145.69651 | 26312 ft | 433 kts | 46° |
| 2026-05-04 08:48 | -36.97418 | 145.72725 | 26704 ft | 436 kts | 46° |
| 2026-05-04 08:48 | -36.95637 | 145.75809 | 27104 ft | 439 kts | 45° |
| 2026-05-04 08:48 | -36.93834 | 145.78917 | 27484 ft | 441 kts | 44° |
| 2026-05-04 08:49 | -36.92029 | 145.82028 | 27923 ft | 442 kts | 44° |
| 2026-05-04 08:50 | -36.81006 | 146.00992 | 30098 ft | 458 kts | 43° |
| 2026-05-04 08:50 | -36.79127 | 146.04213 | 30380 ft | 461 kts | 43° |
| 2026-05-04 08:51 | -36.77234 | 146.07458 | 30669 ft | 462 kts | 44° |
| 2026-05-04 08:51 | -36.75363 | 146.10664 | 30940 ft | 464 kts | 44° |
| 2026-05-04 08:51 | -36.73450 | 146.13937 | 31196 ft | 468 kts | 44° |
| 2026-05-04 08:51 | -36.71528 | 146.17224 | 31467 ft | 471 kts | 44° |
| 2026-05-04 08:52 | -36.69594 | 146.20530 | 31751 ft | 473 kts | 44° |
| 2026-05-04 08:52 | -36.67656 | 146.23846 | 32138 ft | 473 kts | 44° |
| 2026-05-04 08:52 | -36.65715 | 146.27163 | 32520 ft | 473 kts | 44° |
| 2026-05-04 08:52 | -36.63768 | 146.30478 | 32884 ft | 473 kts | 44° |
| 2026-05-04 08:53 | -36.61845 | 146.33745 | 33178 ft | 473 kts | 45° |
| 2026-05-04 08:54 | -36.48143 | 146.56942 | 35243 ft | 478 kts | 45° |
| 2026-05-04 08:55 | -36.46164 | 146.60270 | 35483 ft | 479 kts | 45° |
| 2026-05-04 08:55 | -36.44179 | 146.63610 | 35744 ft | 480 kts | 45° |
| 2026-05-04 08:55 | -36.42193 | 146.66950 | 36002 ft | 481 kts | 45° |
| 2026-05-04 08:55 | -36.40228 | 146.70261 | 36245 ft | 482 kts | 45° |
| 2026-05-04 08:57 | -36.26248 | 146.93730 | 37045 ft | 480 kts | 45° |
| 2026-05-04 09:01 | -35.98336 | 147.39990 | 37066 ft | 480 kts | 44° |
| 2026-05-04 09:01 | -35.94325 | 147.46601 | 37084 ft | 480 kts | 44° |
| 2026-05-04 09:02 | -35.90321 | 147.53181 | 37084 ft | 479 kts | 44° |
| 2026-05-04 09:02 | -35.86298 | 147.59771 | 37088 ft | 480 kts | 44° |
| 2026-05-04 09:03 | -35.82315 | 147.66293 | 37091 ft | 479 kts | 44° |
| 2026-05-04 09:03 | -35.78303 | 147.72854 | 37086 ft | 478 kts | 44° |
| 2026-05-04 09:04 | -35.74279 | 147.79400 | 37085 ft | 478 kts | 44° |
| 2026-05-04 09:04 | -35.70283 | 147.85897 | 37104 ft | 478 kts | 44° |
| 2026-05-04 09:05 | -35.66246 | 147.92459 | 37094 ft | 478 kts | 44° |
| 2026-05-04 09:05 | -35.62246 | 147.98943 | 37083 ft | 478 kts | 44° |
| 2026-05-04 09:06 | -35.58224 | 148.05461 | 37097 ft | 478 kts | 44° |
| 2026-05-04 09:08 | -35.42057 | 148.31482 | 37101 ft | 479 kts | 43° |
| 2026-05-04 09:08 | -35.38038 | 148.37932 | 37107 ft | 479 kts | 43° |
| 2026-05-04 09:09 | -35.33967 | 148.44436 | 37087 ft | 479 kts | 43° |
| 2026-05-04 09:09 | -35.29927 | 148.50889 | 37082 ft | 480 kts | 43° |
| 2026-05-04 09:10 | -35.25868 | 148.57368 | 37097 ft | 479 kts | 43° |
| 2026-05-04 09:10 | -35.21799 | 148.63833 | 37097 ft | 479 kts | 43° |
| 2026-05-04 09:11 | -35.17733 | 148.70283 | 37079 ft | 479 kts | 43° |
| 2026-05-04 09:11 | -35.15699 | 148.73507 | 36891 ft | 478 kts | 43° |
| 2026-05-04 09:11 | -35.13677 | 148.76711 | 36356 ft | 477 kts | 43° |
| 2026-05-04 09:11 | -35.11657 | 148.79911 | 35830 ft | 475 kts | 43° |
| 2026-05-04 09:12 | -35.09647 | 148.83101 | 35432 ft | 471 kts | 43° |
| 2026-05-04 09:12 | -35.07662 | 148.86257 | 35057 ft | 467 kts | 43° |
| 2026-05-04 09:14 | -34.94198 | 149.07462 | 32092 ft | 436 kts | 42° |
| 2026-05-04 09:14 | -34.92353 | 149.10357 | 31688 ft | 431 kts | 42° |
| 2026-05-04 09:14 | -34.90520 | 149.13227 | 31258 ft | 427 kts | 42° |
| 2026-05-04 09:14 | -34.88703 | 149.16064 | 30848 ft | 423 kts | 42° |
| 2026-05-04 09:15 | -34.87052 | 149.18640 | 30480 ft | 419 kts | 42° |
| 2026-05-04 09:15 | -34.85266 | 149.21430 | 30083 ft | 415 kts | 42° |
| 2026-05-04 09:15 | -34.83503 | 149.24194 | 29623 ft | 412 kts | 42° |
| 2026-05-04 09:15 | -34.81757 | 149.26932 | 29163 ft | 408 kts | 42° |
| 2026-05-04 09:17 | -34.69805 | 149.48624 | 26776 ft | 406 kts | 52° |
| 2026-05-04 09:18 | -34.68058 | 149.52649 | 26444 ft | 404 kts | 52° |
| 2026-05-04 09:18 | -34.67173 | 149.54680 | 26280 ft | 403 kts | 52° |
| 2026-05-04 09:18 | -34.65864 | 149.57673 | 26036 ft | 401 kts | 52° |
| 2026-05-04 09:18 | -34.64551 | 149.60666 | 25762 ft | 399 kts | 52° |
| 2026-05-04 09:19 | -34.63247 | 149.63638 | 25522 ft | 397 kts | 52° |
| 2026-05-04 09:19 | -34.61970 | 149.66550 | 25280 ft | 395 kts | 52° |
| 2026-05-04 09:19 | -34.60673 | 149.69506 | 25032 ft | 395 kts | 52° |
| 2026-05-04 09:19 | -34.59381 | 149.72453 | 24789 ft | 394 kts | 52° |
| 2026-05-04 09:20 | -34.58099 | 149.75381 | 24557 ft | 392 kts | 52° |
| 2026-05-04 09:20 | -34.56818 | 149.78301 | 24328 ft | 391 kts | 52° |
| 2026-05-04 09:20 | -34.55544 | 149.81204 | 24096 ft | 389 kts | 52° |
| 2026-05-04 09:20 | -34.54285 | 149.84070 | 23859 ft | 388 kts | 52° |
| 2026-05-04 09:21 | -34.53015 | 149.86954 | 23637 ft | 386 kts | 52° |
| 2026-05-04 09:21 | -34.51751 | 149.89816 | 23361 ft | 384 kts | 52° |
| 2026-05-04 09:21 | -34.50488 | 149.92671 | 23087 ft | 382 kts | 52° |
| 2026-05-04 09:21 | -34.49230 | 149.95512 | 22811 ft | 381 kts | 52° |
| 2026-05-04 09:22 | -34.47995 | 149.98297 | 22546 ft | 379 kts | 53° |
| 2026-05-04 09:22 | -34.46736 | 150.01140 | 22279 ft | 377 kts | 53° |
| 2026-05-04 09:22 | -34.45512 | 150.03899 | 22024 ft | 376 kts | 53° |
| 2026-05-04 09:22 | -34.44279 | 150.06680 | 21762 ft | 373 kts | 53° |
| 2026-05-04 09:23 | -34.43061 | 150.09439 | 21414 ft | 368 kts | 53° |
| 2026-05-04 09:23 | -34.41859 | 150.12161 | 20968 ft | 364 kts | 53° |
| 2026-05-04 09:23 | -34.40664 | 150.14857 | 20550 ft | 362 kts | 53° |
| 2026-05-04 09:23 | -34.39473 | 150.17534 | 20094 ft | 359 kts | 54° |
| 2026-05-04 09:25 | -34.31313 | 150.35818 | 17061 ft | 346 kts | 54° |
| 2026-05-04 09:25 | -34.30170 | 150.38367 | 16638 ft | 343 kts | 54° |
| 2026-05-04 09:26 | -34.29033 | 150.40898 | 16221 ft | 341 kts | 54° |
| 2026-05-04 09:26 | -34.27920 | 150.43378 | 15797 ft | 339 kts | 54° |
| 2026-05-04 09:26 | -34.26802 | 150.45878 | 15374 ft | 337 kts | 55° |
| 2026-05-04 09:26 | -34.25693 | 150.48359 | 14957 ft | 335 kts | 55° |
| 2026-05-04 09:27 | -34.24585 | 150.50835 | 14540 ft | 334 kts | 55° |
| 2026-05-04 09:27 | -34.23483 | 150.53294 | 14123 ft | 332 kts | 55° |
| 2026-05-04 09:27 | -34.22389 | 150.55738 | 13693 ft | 330 kts | 55° |
| 2026-05-04 09:27 | -34.21299 | 150.58172 | 13261 ft | 327 kts | 55° |
| 2026-05-04 09:28 | -34.20221 | 150.60578 | 12868 ft | 324 kts | 55° |
| 2026-05-04 09:28 | -34.19147 | 150.62966 | 12452 ft | 321 kts | 55° |
| 2026-05-04 09:28 | -34.18144 | 150.65190 | 12075 ft | 319 kts | 56° |
| 2026-05-04 09:28 | -34.17091 | 150.67526 | 11666 ft | 316 kts | 55° |
| 2026-05-04 09:29 | -34.16051 | 150.69839 | 11422 ft | 308 kts | 56° |
| 2026-05-04 09:29 | -34.15045 | 150.72092 | 11110 ft | 304 kts | 56° |
| 2026-05-04 09:29 | -34.14051 | 150.74304 | 10655 ft | 300 kts | 56° |
| 2026-05-04 09:29 | -34.13064 | 150.76501 | 10118 ft | 289 kts | 55° |
| 2026-05-04 09:30 | -34.12144 | 150.78555 | 9752 ft | 274 kts | 54° |
| 2026-05-04 09:30 | -34.11257 | 150.80533 | 9403 ft | 267 kts | 54° |
| 2026-05-04 09:30 | -34.10358 | 150.82517 | 9057 ft | 269 kts | 54° |
| 2026-05-04 09:30 | -34.09456 | 150.84498 | 8774 ft | 276 kts | 54° |
| 2026-05-04 09:31 | -34.08507 | 150.86572 | 8501 ft | 286 kts | 54° |
| 2026-05-04 09:31 | -34.07552 | 150.88683 | 8210 ft | 286 kts | 55° |
| 2026-05-04 09:31 | -34.06603 | 150.90795 | 7928 ft | 286 kts | 55° |
| 2026-05-04 09:31 | -34.05661 | 150.92895 | 7647 ft | 284 kts | 55° |
| 2026-05-04 09:32 | -34.04721 | 150.94991 | 7356 ft | 283 kts | 55° |
| 2026-05-04 09:32 | -34.03811 | 150.97094 | 7090 ft | 284 kts | 62° |
| 2026-05-04 09:34 | -34.12250 | 151.08809 | 5566 ft | 301 kts | 170° |
| 2026-05-04 09:34 | -34.14289 | 151.09335 | 5238 ft | 299 kts | 170° |
| 2026-05-04 09:34 | -34.16134 | 151.09818 | 5104 ft | 290 kts | 169° |
| 2026-05-04 09:34 | -34.17840 | 151.10263 | 4985 ft | 282 kts | 169° |
| 2026-05-04 09:35 | -34.19721 | 151.10754 | 4859 ft | 272 kts | 169° |
| 2026-05-04 09:35 | -34.21322 | 151.11169 | 4751 ft | 263 kts | 170° |
| 2026-05-04 09:35 | -34.23072 | 151.11625 | 4622 ft | 253 kts | 169° |
| 2026-05-04 09:35 | -34.24766 | 151.12115 | 4250 ft | 255 kts | 159° |
| 2026-05-04 09:37 | -34.25618 | 151.24247 | 3008 ft | 183 kts | 30° |
| 2026-05-04 09:37 | -34.24505 | 151.24894 | 3005 ft | 175 kts | 11° |
| 2026-05-04 09:38 | -34.23316 | 151.25032 | 3005 ft | 170 kts | 352° |
| 2026-05-04 09:38 | -34.22154 | 151.24765 | 3006 ft | 170 kts | 346° |
| 2026-05-04 09:38 | -34.20997 | 151.24464 | 3006 ft | 168 kts | 345° |
| 2026-05-04 09:38 | -34.19856 | 151.24166 | 3005 ft | 168 kts | 346° |
| 2026-05-04 09:39 | -34.18729 | 151.23872 | 3007 ft | 167 kts | 346° |
| 2026-05-04 09:39 | -34.17577 | 151.23571 | 3006 ft | 168 kts | 345° |
| 2026-05-04 09:39 | -34.16452 | 151.23277 | 3006 ft | 168 kts | 346° |
| 2026-05-04 09:39 | -34.15309 | 151.22979 | 3006 ft | 168 kts | 346° |
| 2026-05-04 09:40 | -34.14167 | 151.22681 | 3004 ft | 168 kts | 346° |
| 2026-05-04 09:40 | -34.13026 | 151.22384 | 3000 ft | 168 kts | 346° |
| 2026-05-04 09:40 | -34.11896 | 151.22089 | 2986 ft | 166 kts | 347° |
| 2026-05-04 09:40 | -34.10774 | 151.21797 | 2815 ft | 167 kts | 347° |
| 2026-05-04 09:41 | -34.09642 | 151.21502 | 2622 ft | 166 kts | 347° |
| 2026-05-04 09:42 | -34.02231 | 151.19573 | 1186 ft | 135 kts | 348° |
| 2026-05-04 09:43 | -34.01295 | 151.19330 | 1008 ft | 138 kts | 348° |
| 2026-05-04 09:43 | -34.00378 | 151.19092 | 835 ft | 138 kts | 349° |
| 2026-05-04 09:43 | -33.99456 | 151.18852 | 653 ft | 135 kts | 353° |
| 2026-05-04 09:43 | -33.98552 | 151.18617 | 490 ft | 134 kts | 352° |
| 2026-05-04 09:44 | -33.97635 | 151.18380 | 307 ft | 135 kts | 350° |
| 2026-05-04 09:44 | -33.96717 | 151.18141 | 126 ft | 134 kts | 351° |
| 2026-05-04 09:44 | -33.95840 | 151.17918 | 29 ft | 115 kts | 348° |
| 2026-05-04 09:46 | -33.95213 | 151.17878 | 30 ft | 0 kts | 75° |
| 2026-05-04 09:46 | -33.95213 | 151.17879 | 30 ft | 1 kts | 75° |
| 2026-05-04 09:46 | -33.95185 | 151.17937 | 30 ft | 19 kts | 40° |
| 2026-05-04 09:47 | -33.95064 | 151.17933 | 30 ft | 17 kts | 350° |
| 2026-05-04 09:47 | -33.94947 | 151.17904 | 30 ft | 13 kts | 348° |
| 2026-05-04 09:49 | -33.94745 | 151.17850 | 30 ft | 0 kts | 348° |
| 2026-05-04 09:51 | -33.94666 | 151.17829 | 30 ft | 0 kts | 347° |
| 2026-05-04 09:53 | -33.94619 | 151.17816 | 30 ft | 12 kts | 347° |
| 2026-05-04 09:53 | -33.94512 | 151.17788 | 30 ft | 20 kts | 347° |
| 2026-05-04 09:53 | -33.94349 | 151.17739 | 30 ft | 28 kts | 345° |
| 2026-05-04 09:53 | -33.94156 | 151.17679 | 29 ft | 13 kts | 346° |
| 2026-05-04 09:54 | -33.94116 | 151.17668 | 29 ft | 14 kts | 347° |
| 2026-05-04 09:54 | -33.93985 | 151.17632 | 29 ft | 21 kts | 347° |
| 2026-05-04 09:54 | -33.93842 | 151.17594 | 29 ft | 22 kts | 347° |
| 2026-05-04 09:54 | -33.93692 | 151.17568 | 29 ft | 21 kts | 17° |
| 2026-05-04 09:55 | -33.93654 | 151.17716 | 30 ft | 19 kts | 97° |
| 2026-05-04 09:55 | -33.93629 | 151.17793 | 30 ft | 4 kts | 335° |
| 2026-05-04 09:55 | -33.93608 | 151.17766 | 30 ft | 0 kts | 307° |
| 2026-05-04 09:55 | -33.93603 | 151.17757 | 30 ft | 0 kts | 304° |
| 2026-05-04 09:56 | -33.93600 | 151.17752 | 30 ft | 0 kts | 304° |